Time;durP1;ratioP1;P1;durP2;ratioP2;P2;SDS_P1;SDS_P2;PMS_P1;PMS_P2;Temp;Humidity;BMP_temperature;BMP_pressure;BME280_temperature;BME280_humidity;BME280_pressure;Samples;Min_cycle;Max_cycle;Signal;HPM_P1;HPM_P2
2021/05/03 00:02:06;;;;;;;8.73;6.87;;;4.90;99.90;;;;;;5094238;28;20167;-67
2021/05/03 00:04:32;;;;;;;8.23;7.13;;;4.90;99.90;;;;;;5094645;28;20199;-67
2021/05/03 00:06:58;;;;;;;10.77;7.40;;;4.90;99.90;;;;;;5094258;28;20896;-67
2021/05/03 00:09:24;;;;;;;10.10;6.57;;;4.80;99.90;;;;;;5094149;28;20393;-67
2021/05/03 00:11:49;;;;;;;8.30;6.73;;;4.80;99.90;;;;;;5094397;28;20154;-67
2021/05/03 00:14:15;;;;;;;7.63;6.60;;;4.80;99.90;;;;;;5094093;28;20155;-67
2021/05/03 00:16:41;;;;;;;11.10;6.70;;;4.80;99.90;;;;;;5093991;28;20587;-68
2021/05/03 00:19:06;;;;;;;13.77;6.57;;;4.80;99.90;;;;;;5094002;28;20159;-67
2021/05/03 00:21:32;;;;;;;9.70;6.13;;;4.70;99.90;;;;;;5094481;28;20647;-67
2021/05/03 00:23:58;;;;;;;7.40;6.53;;;4.70;99.90;;;;;;5094752;28;20161;-67
2021/05/03 00:26:24;;;;;;;8.57;6.77;;;4.70;99.90;;;;;;5093818;28;20442;-67
2021/05/03 00:28:49;;;;;;;9.53;7.53;;;4.70;99.90;;;;;;5093788;28;20237;-68
2021/05/03 00:31:15;;;;;;;7.90;6.13;;;4.70;99.90;;;;;;5093806;28;20151;-68
2021/05/03 00:33:40;;;;;;;8.77;6.50;;;4.60;99.90;;;;;;5093625;28;20628;-67
2021/05/03 00:36:07;;;;;;;8.57;6.00;;;4.60;99.90;;;;;;5093722;28;20169;-68
2021/05/03 00:38:32;;;;;;;8.93;6.10;;;4.60;99.90;;;;;;5094830;28;20178;-67
2021/05/03 00:40:59;;;;;;;9.23;5.90;;;4.60;99.90;;;;;;5093566;28;20393;-67
2021/05/03 00:43:25;;;;;;;7.30;6.17;;;4.60;99.90;;;;;;5093669;28;20166;-67
2021/05/03 00:45:51;;;;;;;10.63;6.80;;;4.50;99.90;;;;;;5093349;28;20448;-67
2021/05/03 00:48:17;;;;;;;7.53;6.80;;;4.50;99.90;;;;;;5093366;28;20556;-67
2021/05/03 00:50:43;;;;;;;6.60;5.97;;;4.50;99.90;;;;;;5093483;28;20386;-67
2021/05/03 00:53:09;;;;;;;7.37;6.50;;;4.50;99.90;;;;;;5093913;28;20218;-67
2021/05/03 00:55:35;;;;;;;6.97;6.27;;;4.50;99.90;;;;;;5093867;28;20467;-67
2021/05/03 00:58:03;;;;;;;7.57;6.20;;;4.50;99.90;;;;;;5093330;28;20163;-67
2021/05/03 01:00:29;;;;;;;9.50;6.27;;;4.50;99.90;;;;;;5093232;28;20446;-67
2021/05/03 01:02:55;;;;;;;7.47;6.70;;;4.40;99.90;;;;;;5093371;28;20405;-67
2021/05/03 01:05:21;;;;;;;11.07;6.50;;;4.40;99.90;;;;;;5093179;28;20474;-67
2021/05/03 01:07:47;;;;;;;12.20;7.10;;;4.40;99.90;;;;;;5094116;28;20713;-67
2021/05/03 01:10:13;;;;;;;7.80;6.40;;;4.40;99.90;;;;;;5093289;28;20397;-67
2021/05/03 01:12:40;;;;;;;12.53;7.10;;;4.40;99.90;;;;;;5093652;28;20465;-67
2021/05/03 01:15:07;;;;;;;7.00;6.30;;;4.40;99.90;;;;;;5093049;28;20435;-67
2021/05/03 01:17:34;;;;;;;12.73;6.73;;;4.30;99.90;;;;;;5092982;28;20479;-67
2021/05/03 01:22:42;;;;;;;10.37;6.97;;;4.30;99.90;;;;;;5111777;27;20501;-66
2021/05/03 01:25:09;;;;;;;7.00;6.30;;;4.30;99.90;;;;;;5110805;28;20866;-66
2021/05/03 01:27:35;;;;;;;14.03;6.90;;;4.20;99.90;;;;;;5110752;28;20178;-66
2021/05/03 01:30:04;;;;;;;7.87;7.03;;;4.20;99.90;;;;;;5092487;28;20549;-66
2021/05/03 01:32:30;;;;;;;7.33;6.63;;;4.20;99.90;;;;;;5090309;28;20380;-66
2021/05/03 01:34:56;;;;;;;8.20;6.60;;;4.20;99.90;;;;;;5090142;28;20858;-66
2021/05/03 01:37:22;;;;;;;8.43;7.40;;;4.20;99.90;;;;;;5090778;28;20196;-66
2021/05/03 01:39:47;;;;;;;9.43;7.40;;;4.20;99.90;;;;;;5090026;28;20410;-66
2021/05/03 01:42:13;;;;;;;9.60;6.97;;;4.10;99.90;;;;;;5089937;28;20194;-66
2021/05/03 01:44:39;;;;;;;11.10;7.90;;;4.10;99.90;;;;;;5090114;28;20155;-66
2021/05/03 01:47:05;;;;;;;10.40;8.30;;;4.10;99.90;;;;;;5090505;28;20174;-66
2021/05/03 01:49:31;;;;;;;8.00;7.30;;;4.10;99.90;;;;;;5090047;28;20465;-66
2021/05/03 01:51:57;;;;;;;11.77;7.80;;;4.10;99.90;;;;;;5090594;28;20472;-66
2021/05/03 01:54:23;;;;;;;9.80;8.87;;;4.00;99.90;;;;;;5094578;28;20170;-66
2021/05/03 01:56:48;;;;;;;9.20;8.20;;;4.00;99.90;;;;;;5110180;28;20158;-66
2021/05/03 01:59:14;;;;;;;8.53;7.60;;;4.00;99.90;;;;;;5110335;28;20779;-66
2021/05/03 02:01:40;;;;;;;9.43;7.63;;;4.00;99.90;;;;;;5110188;28;20273;-66
2021/05/03 02:04:07;;;;;;;8.93;8.03;;;3.90;99.90;;;;;;5109178;28;20720;-65
2021/05/03 02:06:35;;;;;;;9.33;8.43;;;3.90;99.90;;;;;;5110690;28;20510;-66
2021/05/03 02:11:42;;;;;;;11.30;7.83;;;3.90;99.90;;;;;;5110750;27;21033;-66
2021/05/03 02:14:09;;;;;;;12.07;7.97;;;3.80;99.90;;;;;;5110690;28;20381;-66
2021/05/03 02:16:35;;;;;;;8.83;7.93;;;3.80;99.90;;;;;;5110597;28;20166;-66
2021/05/03 02:19:01;;;;;;;9.50;8.30;;;3.80;99.90;;;;;;5109118;28;20381;-66
2021/05/03 02:21:26;;;;;;;9.67;7.47;;;3.80;99.90;;;;;;5090658;28;20438;-66
2021/05/03 02:23:53;;;;;;;10.53;8.37;;;3.80;99.90;;;;;;5090107;28;20665;-66
2021/05/03 02:26:18;;;;;;;9.73;8.73;;;3.80;99.90;;;;;;5090030;28;20161;-66
2021/05/03 02:28:44;;;;;;;9.40;8.50;;;3.70;99.90;;;;;;5090138;28;20853;-66
2021/05/03 02:31:09;;;;;;;10.00;9.00;;;3.70;99.90;;;;;;5090018;28;20195;-66
2021/05/03 02:33:35;;;;;;;9.23;8.33;;;3.70;99.90;;;;;;5089975;28;20524;-66
2021/05/03 02:36:01;;;;;;;10.70;7.93;;;3.70;99.90;;;;;;5091115;28;20620;-66
2021/05/03 02:38:30;;;;;;;9.93;7.43;;;3.70;99.90;;;;;;5089838;28;20159;-66
2021/05/03 02:40:56;;;;;;;9.83;8.40;;;3.60;99.90;;;;;;5089876;28;20519;-66
2021/05/03 02:43:21;;;;;;;8.90;8.00;;;3.60;99.90;;;;;;5090371;28;20421;-66
2021/05/03 02:45:47;;;;;;;8.37;7.40;;;3.60;99.90;;;;;;5089790;28;20182;-66
2021/05/03 02:48:13;;;;;;;10.07;8.40;;;3.60;99.90;;;;;;5089807;28;20163;-66
2021/05/03 02:50:38;;;;;;;9.90;8.70;;;3.60;99.90;;;;;;5089736;28;20194;-66
2021/05/03 02:53:04;;;;;;;9.40;8.40;;;3.60;99.90;;;;;;5090134;28;20155;-66
2021/05/03 02:55:30;;;;;;;11.17;7.93;;;3.60;99.90;;;;;;5103758;28;20657;-66
2021/05/03 02:57:55;;;;;;;9.70;8.23;;;3.50;99.90;;;;;;5109932;28;20150;-66
2021/05/03 03:00:26;;;;;;;9.93;8.37;;;3.50;99.90;;;;;;5109872;28;20209;-66
2021/05/03 03:02:53;;;;;;;10.13;7.67;;;3.50;99.90;;;;;;5109860;28;20691;-66
2021/05/03 03:05:18;;;;;;;10.27;8.70;;;3.50;99.90;;;;;;5109787;28;20396;-66
2021/05/03 03:07:44;;;;;;;10.47;7.87;;;3.50;99.90;;;;;;5109811;28;20399;-66
2021/05/03 03:10:10;;;;;;;8.93;8.03;;;3.50;99.90;;;;;;5108619;28;20460;-66
2021/05/03 03:12:36;;;;;;;12.93;8.80;;;3.50;99.90;;;;;;5109586;28;20155;-66
2021/05/03 03:15:03;;;;;;;10.07;8.50;;;3.50;99.90;;;;;;5109541;28;20491;-66
2021/05/03 03:17:29;;;;;;;9.03;8.13;;;3.40;99.90;;;;;;5109538;28;20912;-66
2021/05/03 03:19:54;;;;;;;9.60;7.10;;;3.40;99.90;;;;;;5109533;28;20389;-66
2021/05/03 03:22:20;;;;;;;8.87;7.37;;;3.40;99.90;;;;;;5100064;28;20159;-66
2021/05/03 03:24:46;;;;;;;10.07;8.00;;;3.40;99.90;;;;;;5095839;28;20184;-66
2021/05/03 03:27:11;;;;;;;10.77;8.23;;;3.40;99.90;;;;;;5095130;28;20233;-65
2021/05/03 03:29:37;;;;;;;9.73;7.80;;;3.30;99.90;;;;;;5095644;28;20713;-66
2021/05/03 03:32:02;;;;;;;10.00;7.77;;;3.40;99.90;;;;;;5095665;28;20173;-66
2021/05/03 03:34:28;;;;;;;9.40;8.40;;;3.40;99.90;;;;;;5095738;28;20154;-66
2021/05/03 03:36:53;;;;;;;10.33;8.20;;;3.30;99.90;;;;;;5095654;28;20163;-66
2021/05/03 03:39:19;;;;;;;11.00;7.60;;;3.30;99.90;;;;;;5095544;28;20154;-66
2021/05/03 03:41:44;;;;;;;9.50;8.50;;;3.30;99.90;;;;;;5095536;28;20163;-66
2021/05/03 03:44:10;;;;;;;8.10;7.30;;;3.30;99.90;;;;;;5094641;28;20174;-66
2021/05/03 03:46:36;;;;;;;9.33;8.43;;;3.30;99.90;;;;;;5095356;28;20207;-66
2021/05/03 03:49:02;;;;;;;12.50;9.00;;;3.30;99.90;;;;;;5095506;28;20316;-66
2021/05/03 03:51:28;;;;;;;9.93;8.90;;;3.30;99.90;;;;;;5095222;28;20452;-66
2021/05/03 03:53:54;;;;;;;9.23;8.30;;;3.30;99.90;;;;;;5086099;28;20406;-66
2021/05/03 03:56:22;;;;;;;10.83;8.93;;;3.30;99.90;;;;;;5075031;28;20234;-66
2021/05/03 03:58:47;;;;;;;11.60;9.00;;;3.20;99.90;;;;;;5074793;28;20500;-66
2021/05/03 04:01:13;;;;;;;9.33;7.93;;;3.20;99.90;;;;;;5075476;28;20496;-66
2021/05/03 04:03:50;;;;;;;11.47;9.33;;;3.20;99.90;;;;;;5076030;28;20246;-66
2021/05/03 04:06:25;;;;;;;11.17;10.07;;;3.20;99.90;;;;;;5074910;28;20399;-66
2021/05/03 04:11:55;;;;;;;10.70;8.90;;;3.10;99.90;;;;;;5073545;28;20464;-66
2021/05/03 04:22:46;;;;;;;12.70;9.20;;;3.20;99.90;;;;;;5089721;28;20389;-67
2021/05/03 04:25:21;;;;;;;12.33;8.63;;;3.20;99.90;;;;;;5090383;28;20389;-67
2021/05/03 04:27:46;;;;;;;12.97;10.13;;;3.20;99.90;;;;;;5090336;28;20429;-67
2021/05/03 04:30:12;;;;;;;12.67;10.40;;;3.20;99.90;;;;;;5090224;28;20413;-66
2021/05/03 04:32:39;;;;;;;11.30;10.17;;;3.20;99.90;;;;;;5091078;28;20154;-67
2021/05/03 04:35:06;;;;;;;11.13;10.03;;;3.30;99.90;;;;;;5090546;28;20436;-67
2021/05/03 04:37:31;;;;;;;11.60;10.40;;;3.30;99.90;;;;;;5090505;28;20942;-66
2021/05/03 04:39:57;;;;;;;11.10;10.03;;;3.30;99.90;;;;;;5090248;28;20385;-67
2021/05/03 04:42:23;;;;;;;11.90;9.60;;;3.40;99.90;;;;;;5089999;28;20734;-67
2021/05/03 04:44:48;;;;;;;12.23;11.00;;;3.40;99.90;;;;;;5090084;28;20151;-66
2021/05/03 04:47:14;;;;;;;12.60;11.23;;;3.40;99.90;;;;;;5090987;28;20155;-67
2021/05/03 04:49:39;;;;;;;11.93;10.00;;;3.50;99.90;;;;;;5089998;28;20158;-67
2021/05/03 04:52:06;;;;;;;11.63;10.53;;;3.50;99.90;;;;;;5090604;28;20158;-66
2021/05/03 04:54:31;;;;;;;18.47;10.77;;;3.50;99.90;;;;;;5104109;28;20181;-67
2021/05/03 04:56:57;;;;;;;10.97;9.87;;;3.60;99.90;;;;;;5110116;28;20885;-66
2021/05/03 04:59:22;;;;;;;11.27;10.17;;;3.60;99.90;;;;;;5110078;28;20182;-67
2021/05/03 05:01:48;;;;;;;12.43;11.00;;;3.70;99.90;;;;;;5110640;28;20674;-67
2021/05/03 05:04:14;;;;;;;12.67;10.97;;;3.70;99.90;;;;;;5110015;28;20162;-67
2021/05/03 05:06:39;;;;;;;12.63;11.33;;;3.70;99.90;;;;;;5110211;28;20241;-67
2021/05/03 05:09:06;;;;;;;11.60;10.50;;;3.80;99.90;;;;;;5109109;28;20710;-67
2021/05/03 05:11:32;;;;;;;14.00;10.70;;;3.90;99.90;;;;;;5109918;28;20621;-67
2021/05/03 05:13:57;;;;;;;11.80;10.70;;;3.90;99.90;;;;;;5109990;28;20457;-67
2021/05/03 05:16:24;;;;;;;14.10;10.77;;;4.00;99.90;;;;;;5110169;28;20658;-67
2021/05/03 05:18:49;;;;;;;15.07;10.60;;;4.10;99.90;;;;;;5110018;28;20248;-67
2021/05/03 05:21:15;;;;;;;12.57;11.20;;;4.20;99.90;;;;;;5109719;28;20422;-67
2021/05/03 05:23:40;;;;;;;11.67;10.60;;;4.30;99.90;;;;;;5109638;28;20164;-67
2021/05/03 05:26:08;;;;;;;12.23;10.87;;;4.40;99.90;;;;;;5108273;28;20179;-67
2021/05/03 05:28:34;;;;;;;12.40;10.80;;;4.50;99.90;;;;;;5095498;28;20155;-67
2021/05/03 05:30:59;;;;;;;12.03;10.67;;;4.70;99.90;;;;;;5096423;28;20480;-67
2021/05/03 05:33:25;;;;;;;12.17;10.70;;;4.80;99.90;;;;;;5096031;28;20425;-67
2021/05/03 05:35:51;;;;;;;13.73;11.10;;;5.00;99.90;;;;;;5095822;28;20182;-67
2021/05/03 05:38:16;;;;;;;12.10;10.73;;;5.20;99.90;;;;;;5095803;28;20166;-67
2021/05/03 05:40:42;;;;;;;12.10;10.70;;;5.40;99.90;;;;;;5095863;28;20265;-67
2021/05/03 05:43:07;;;;;;;12.80;10.30;;;5.50;99.90;;;;;;5095028;28;20194;-67
2021/05/03 05:45:33;;;;;;;11.63;10.43;;;5.70;99.90;;;;;;5096390;28;20165;-67
2021/05/03 05:47:58;;;;;;;12.73;10.47;;;5.90;99.90;;;;;;5096081;28;20525;-67
2021/05/03 05:50:24;;;;;;;12.00;10.10;;;6.10;99.90;;;;;;5095729;28;20221;-67
2021/05/03 05:52:50;;;;;;;10.30;9.23;;;6.20;99.90;;;;;;5087214;28;20272;-67
2021/05/03 05:55:15;;;;;;;10.20;9.30;;;6.40;99.90;;;;;;5075282;28;20272;-67
2021/05/03 05:57:41;;;;;;;13.03;8.87;;;6.50;99.90;;;;;;5075632;28;20251;-67
2021/05/03 06:00:07;;;;;;;11.37;10.17;;;6.70;99.90;;;;;;5076345;28;20211;-67
2021/05/03 06:02:33;;;;;;;9.17;8.23;;;6.80;99.90;;;;;;5075451;28;20266;-67
2021/05/03 06:04:58;;;;;;;11.40;9.13;;;7.00;99.90;;;;;;5075055;28;20434;-67
2021/05/03 06:07:24;;;;;;;11.10;8.83;;;7.10;99.90;;;;;;5075109;28;20162;-67
2021/05/03 06:09:49;;;;;;;8.87;8.07;;;7.20;99.90;;;;;;5075073;28;20180;-67
2021/05/03 06:12:15;;;;;;;9.23;8.10;;;7.30;99.90;;;;;;5075022;28;20220;-67
2021/05/03 06:14:41;;;;;;;10.60;8.57;;;7.40;99.90;;;;;;5074954;28;20185;-67
2021/05/03 06:17:06;;;;;;;9.90;8.00;;;7.40;99.90;;;;;;5075605;28;20225;-67
2021/05/03 06:19:32;;;;;;;9.50;8.53;;;7.50;99.90;;;;;;5074862;28;20159;-67
2021/05/03 06:21:57;;;;;;;10.70;9.60;;;7.60;99.90;;;;;;5074649;28;20166;-67
2021/05/03 06:24:23;;;;;;;11.40;9.90;;;7.80;99.90;;;;;;5074743;28;20195;-67
2021/05/03 06:26:49;;;;;;;10.43;9.20;;;8.00;99.90;;;;;;5074706;28;20154;-67
2021/05/03 06:29:15;;;;;;;10.47;9.27;;;8.20;99.90;;;;;;5075178;28;20155;-67
2021/05/03 06:31:41;;;;;;;10.67;9.57;;;8.50;99.90;;;;;;5074610;28;20427;-67
2021/05/03 06:34:07;;;;;;;12.23;10.03;;;8.60;99.90;;;;;;5075312;28;20427;-67
2021/05/03 06:36:32;;;;;;;12.67;9.50;;;8.80;99.90;;;;;;5074260;28;20445;-67
2021/05/03 06:38:59;;;;;;;10.93;8.23;;;8.90;99.90;;;;;;5073476;28;20498;-67
2021/05/03 06:41:24;;;;;;;11.10;7.87;;;9.10;99.90;;;;;;5074496;28;20655;-67
2021/05/03 06:43:50;;;;;;;10.00;8.47;;;9.20;99.90;;;;;;5074716;28;20390;-67
2021/05/03 06:46:15;;;;;;;10.57;8.53;;;9.30;99.90;;;;;;5074419;28;20545;-67
2021/05/03 06:48:41;;;;;;;11.27;8.77;;;9.40;99.90;;;;;;5074212;28;20210;-67
2021/05/03 06:51:06;;;;;;;9.77;7.80;;;9.50;99.90;;;;;;5074626;28;20252;-67
2021/05/03 06:53:32;;;;;;;8.33;7.07;;;9.60;99.90;;;;;;5088563;28;20237;-67
2021/05/03 06:55:58;;;;;;;7.47;6.77;;;9.70;99.90;;;;;;5094626;28;20604;-67
2021/05/03 06:58:24;;;;;;;9.00;7.67;;;9.70;99.90;;;;;;5094936;28;20874;-67
2021/05/03 07:00:49;;;;;;;10.70;8.00;;;9.80;99.90;;;;;;5094426;28;20602;-67
2021/05/03 07:03:15;;;;;;;9.40;7.50;;;9.80;99.90;;;;;;5094294;28;20152;-67
2021/05/03 07:05:40;;;;;;;7.70;6.90;;;9.80;99.90;;;;;;5094017;28;20159;-67
2021/05/03 07:08:09;;;;;;;7.80;7.00;;;9.80;99.90;;;;;;5093373;28;20220;-67
2021/05/03 07:10:38;;;;;;;10.80;7.50;;;9.80;99.90;;;;;;5094207;28;20158;-67
2021/05/03 07:13:03;;;;;;;9.90;6.97;;;9.90;99.90;;;;;;5094495;28;20425;-67
2021/05/03 07:15:29;;;;;;;8.30;7.00;;;9.90;99.90;;;;;;5093929;28;20537;-67
2021/05/03 07:17:55;;;;;;;7.90;6.83;;;10.00;99.90;;;;;;5094172;28;20273;-67
2021/05/03 07:20:22;;;;;;;10.07;8.60;;;10.00;99.90;;;;;;5093971;28;20252;-67
2021/05/03 07:22:47;;;;;;;9.33;8.30;;;10.10;99.90;;;;;;5093822;28;20393;-67
2021/05/03 07:25:14;;;;;;;8.83;7.60;;;10.10;99.90;;;;;;5093548;28;20426;-67
2021/05/03 07:27:40;;;;;;;8.67;7.70;;;10.20;99.90;;;;;;5094627;28;20151;-67
2021/05/03 07:30:08;;;;;;;11.13;8.43;;;10.30;99.90;;;;;;5093779;28;20402;-67
2021/05/03 07:32:34;;;;;;;11.30;8.27;;;10.40;99.90;;;;;;5093796;28;20419;-67
2021/05/03 07:34:59;;;;;;;9.00;7.07;;;10.50;99.90;;;;;;5093619;28;20790;-67
2021/05/03 07:37:25;;;;;;;6.80;6.13;;;10.80;99.00;;;;;;5093731;28;20799;-67
2021/05/03 07:39:51;;;;;;;8.47;6.13;;;11.50;98.30;;;;;;5093747;28;20155;-67
2021/05/03 07:42:16;;;;;;;7.83;5.97;;;12.50;94.50;;;;;;5093360;28;20177;-67
2021/05/03 07:44:42;;;;;;;6.60;5.70;;;13.70;87.80;;;;;;5093436;28;20158;-67
2021/05/03 07:47:07;;;;;;;6.93;5.10;;;14.90;75.50;;;;;;5093489;28;20172;-68
2021/05/03 07:49:33;;;;;;;9.23;5.20;;;16.10;63.20;;;;;;5093257;28;20524;-67
2021/05/03 07:51:58;;;;;;;5.50;5.00;;;17.10;56.40;;;;;;5083454;28;20250;-68
2021/05/03 07:54:24;;;;;;;5.53;4.47;;;17.80;52.50;;;;;;5073887;28;20168;-68
2021/05/03 07:56:50;;;;;;;8.83;4.63;;;18.50;49.80;;;;;;5073510;28;20202;-68
2021/05/03 07:59:15;;;;;;;4.83;4.40;;;18.90;47.60;;;;;;5073542;28;20199;-68
2021/05/03 08:01:43;;;;;;;5.10;4.57;;;19.50;46.00;;;;;;5073098;28;20164;-68
2021/05/03 08:04:09;;;;;;;4.53;3.73;;;20.30;44.50;;;;;;5072989;28;20519;-68
2021/05/03 08:06:34;;;;;;;4.10;3.30;;;20.80;41.70;;;;;;5074671;28;20402;-67
2021/05/03 08:09:04;;;;;;;7.63;4.20;;;21.30;41.10;;;;;;5073479;28;20291;-68
2021/05/03 08:11:30;;;;;;;4.00;3.50;;;21.60;39.20;;;;;;5073248;28;20144;-68
2021/05/03 08:13:55;;;;;;;5.70;3.40;;;21.00;39.10;;;;;;5073127;28;20404;-68
2021/05/03 08:16:23;;;;;;;4.57;3.73;;;21.20;39.40;;;;;;5073422;28;20247;-68
2021/05/03 08:18:49;;;;;;;5.87;4.20;;;21.20;37.90;;;;;;5073012;28;20152;-68
2021/05/03 08:21:15;;;;;;;5.77;3.30;;;22.00;38.50;;;;;;5074096;28;20394;-68
2021/05/03 08:23:41;;;;;;;4.13;2.50;;;22.90;35.00;;;;;;5073350;28;20159;-68
2021/05/03 08:26:07;;;;;;;3.73;2.97;;;23.60;33.60;;;;;;5073215;28;20408;-68
2021/05/03 08:28:33;;;;;;;4.40;2.83;;;24.80;32.00;;;;;;5072916;28;20394;-67
2021/05/03 08:30:59;;;;;;;5.40;3.33;;;25.60;30.50;;;;;;5072831;28;20394;-67
2021/05/03 08:33:25;;;;;;;3.90;3.50;;;26.30;29.60;;;;;;5073384;28;20171;-67
2021/05/03 08:35:51;;;;;;;3.37;3.07;;;26.80;28.90;;;;;;5072901;28;20237;-67
2021/05/03 08:38:18;;;;;;;3.33;2.70;;;27.00;28.20;;;;;;5073260;28;20715;-67
2021/05/03 08:40:46;;;;;;;2.90;2.70;;;26.80;27.90;;;;;;5072652;28;20435;-67
2021/05/03 08:43:11;;;;;;;3.20;2.90;;;26.80;28.20;;;;;;5072536;28;20385;-67
2021/05/03 08:45:39;;;;;;;3.70;2.23;;;26.90;28.50;;;;;;5072648;28;20401;-67
2021/05/03 08:48:16;;;;;;;7.13;2.73;;;27.20;27.20;;;;;;5072769;28;20171;-67
2021/05/03 08:50:50;;;;;;;3.43;3.13;;;27.60;26.20;;;;;;5073140;28;20413;-68
2021/05/03 08:53:20;;;;;;;2.70;2.40;;;28.00;26.50;;;;;;5072641;28;20481;-68
2021/05/03 08:55:46;;;;;;;3.70;2.40;;;27.60;25.30;;;;;;5072316;28;20463;-67
2021/05/03 08:58:12;;;;;;;4.23;2.20;;;27.10;26.00;;;;;;5072353;28;20942;-67
2021/05/03 09:00:38;;;;;;;5.97;3.87;;;27.10;26.40;;;;;;5072439;28;20160;-67
2021/05/03 09:03:08;;;;;;;6.33;4.13;;;27.10;26.40;;;;;;5074866;28;20382;-67
2021/05/03 09:05:34;;;;;;;3.40;3.10;;;27.00;26.50;;;;;;5078199;28;20248;-67
2021/05/03 09:08:00;;;;;;;5.93;4.50;;;26.10;27.30;;;;;;5077127;28;20414;-67
2021/05/03 09:10:26;;;;;;;5.83;4.53;;;26.10;28.00;;;;;;5075992;28;20166;-67
2021/05/03 09:12:52;;;;;;;4.20;3.50;;;26.00;28.10;;;;;;5075927;28;20277;-67
2021/05/03 09:15:21;;;;;;;4.90;4.40;;;25.70;28.30;;;;;;5075712;28;20199;-67
2021/05/03 09:17:47;;;;;;;4.43;3.80;;;25.60;28.40;;;;;;5076022;28;20811;-67
2021/05/03 09:20:16;;;;;;;4.30;3.90;;;25.40;28.90;;;;;;5075972;28;20406;-67
2021/05/03 09:25:33;;;;;;;5.10;3.70;;;25.10;28.80;;;;;;5097979;27;21093;-68
2021/05/03 09:43:55;;;;;;;3.67;2.67;;;23.70;30.80;;;;;;5131517;27;20553;-68
2021/05/03 09:46:34;;;;;;;3.50;3.20;;;23.40;30.10;;;;;;5131410;28;20371;-68
2021/05/03 09:51:43;;;;;;;5.60;4.00;;;23.10;31.00;;;;;;5111262;27;20505;-67
2021/05/03 09:54:27;;;;;;;3.93;3.10;;;23.20;30.80;;;;;;5110858;28;20380;-66
2021/05/03 10:07:40;;;;;;;4.90;4.30;;;22.80;31.50;;;;;;5090816;27;20568;-67
2021/05/03 10:10:13;;;;;;;5.63;4.53;;;22.00;32.50;;;;;;5090544;28;20818;-67
2021/05/03 10:12:39;;;;;;;4.53;4.13;;;21.70;33.10;;;;;;5090669;28;20419;-67
2021/05/03 10:15:08;;;;;;;4.77;4.20;;;21.40;33.40;;;;;;5089580;28;20881;-67
2021/05/03 10:17:36;;;;;;;5.13;3.97;;;21.20;33.90;;;;;;5090518;28;20413;-67
2021/05/03 10:20:04;;;;;;;4.67;4.27;;;21.10;34.60;;;;;;5090902;28;20381;-67
2021/05/03 10:22:29;;;;;;;4.00;3.70;;;20.80;34.70;;;;;;5090318;28;20467;-67
2021/05/03 10:24:59;;;;;;;4.90;3.90;;;20.60;34.50;;;;;;5090243;28;20452;-67
2021/05/03 10:27:25;;;;;;;4.90;4.13;;;20.40;34.90;;;;;;5090184;28;20182;-67
2021/05/03 10:30:12;;;;;;;4.60;4.20;;;20.20;35.30;;;;;;5090097;28;20389;-67
2021/05/03 10:32:39;;;;;;;5.70;4.80;;;20.00;35.50;;;;;;5088223;28;20441;-67
2021/05/03 10:35:06;;;;;;;5.30;4.80;;;20.00;36.00;;;;;;5090638;28;20393;-67
2021/05/03 10:56:56;;;;;;;8.67;5.60;;;19.20;36.70;;;;;;5039263;28;20588;-67
2021/05/03 10:59:22;;;;;;;6.03;5.40;;;18.80;36.80;;;;;;5007146;28;20795;-67
2021/05/03 11:04:33;;;;;;;4.93;4.40;;;18.80;37.50;;;;;;5111276;27;20546;-67
2021/05/03 11:09:39;;;;;;;7.30;5.03;;;18.80;37.20;;;;;;5110934;27;20874;-67
2021/05/03 11:15:12;;;;;;;5.20;4.70;;;18.70;37.50;;;;;;5131465;27;21027;-68
2021/05/03 11:17:58;;;;;;;7.73;4.97;;;18.60;37.70;;;;;;5131219;28;20418;-68
2021/05/03 11:20:23;;;;;;;5.10;4.60;;;18.60;37.90;;;;;;5130302;28;20386;-68
2021/05/03 11:23:04;;;;;;;10.03;5.50;;;18.60;38.00;;;;;;5131032;28;20749;-68
2021/05/03 11:25:34;;;;;;;5.00;4.60;;;18.60;37.40;;;;;;5110992;28;20161;-68
2021/05/03 11:28:07;;;;;;;5.77;5.27;;;18.50;37.70;;;;;;5110715;28;20813;-68
2021/05/03 11:33:19;;;;;;;6.40;5.20;;;18.30;39.00;;;;;;5111238;27;20506;-67
2021/05/03 11:41:19;;;;;;;5.63;5.03;;;18.00;38.20;;;;;;5103711;28;20404;-67
2021/05/03 11:46:33;;;;;;;5.37;4.87;;;18.10;38.40;;;;;;5131811;27;20565;-68
2021/05/03 11:49:13;;;;;;;5.50;5.00;;;18.10;38.20;;;;;;5131340;28;20453;-68
2021/05/03 11:51:49;;;;;;;8.20;4.90;;;18.10;37.90;;;;;;5131283;28;20376;-68
2021/05/03 11:54:33;;;;;;;10.20;6.27;;;18.20;38.10;;;;;;5131290;28;20390;-68
2021/05/03 11:59:35;;;;;;;6.17;5.40;;;18.10;38.20;;;;;;5090584;27;20572;-68
2021/05/03 12:02:07;;;;;;;9.77;5.93;;;18.10;38.40;;;;;;5091177;28;20511;-67
2021/05/03 12:04:41;;;;;;;7.80;5.83;;;18.10;37.90;;;;;;5090624;28;20385;-68
2021/05/03 12:07:26;;;;;;;5.40;4.90;;;18.10;38.30;;;;;;5090845;28;20396;-67
2021/05/03 12:15:26;;;;;;;6.10;5.60;;;17.90;40.60;;;;;;5118675;27;20509;-68
2021/05/03 12:17:52;;;;;;;6.07;5.47;;;17.70;40.10;;;;;;5111178;28;20409;-67
2021/05/03 12:20:21;;;;;;;6.80;5.97;;;17.60;39.50;;;;;;5110950;28;20391;-67
2021/05/03 12:28:24;;;;;;;7.43;6.40;;;17.40;39.70;;;;;;5111303;27;20502;-68
2021/05/03 12:30:54;;;;;;;7.67;6.10;;;17.40;39.50;;;;;;5111048;28;20387;-67
2021/05/03 12:33:21;;;;;;;7.50;4.60;;;17.50;39.00;;;;;;5090604;28;20390;-67
2021/05/03 12:35:48;;;;;;;6.33;5.73;;;17.60;38.50;;;;;;5072720;28;20388;-67
2021/05/03 12:38:17;;;;;;;11.07;7.00;;;17.50;38.30;;;;;;5090519;28;20389;-68
2021/05/03 12:40:43;;;;;;;7.07;6.40;;;17.20;38.70;;;;;;5090510;28;20789;-67
2021/05/03 12:43:08;;;;;;;6.47;5.80;;;17.10;39.50;;;;;;5090725;28;20469;-67
2021/05/03 12:48:23;;;;;;;8.47;5.83;;;16.80;39.60;;;;;;5152284;27;20511;-67
2021/05/03 12:56:33;;;;;;;6.23;5.63;;;16.90;40.60;;;;;;5152439;27;20503;-66
2021/05/03 12:59:22;;;;;;;6.10;5.13;;;17.00;40.30;;;;;;5152886;27;20941;-66
2021/05/03 13:02:01;;;;;;;6.17;5.67;;;17.20;40.00;;;;;;5137136;27;20816;-66
2021/05/03 13:04:42;;;;;;;5.57;5.17;;;17.40;39.50;;;;;;5152315;27;20379;-66
2021/05/03 13:30:24;;;;;;;9.43;6.03;;;16.90;39.80;;;;;;5130558;28;20403;-67
2021/05/03 13:32:50;;;;;;;7.27;5.80;;;16.70;40.90;;;;;;5131324;28;20471;-67
2021/05/03 13:35:16;;;;;;;6.03;5.47;;;16.70;41.30;;;;;;5131269;28;20397;-67
2021/05/03 13:37:41;;;;;;;6.53;5.93;;;16.40;40.90;;;;;;5131057;28;20482;-67
2021/05/03 13:40:07;;;;;;;8.33;6.53;;;16.30;41.70;;;;;;5120357;28;20227;-67
2021/05/03 13:42:33;;;;;;;6.70;6.10;;;16.00;41.40;;;;;;5110878;28;20158;-67
2021/05/03 13:44:59;;;;;;;6.93;6.33;;;16.00;41.50;;;;;;5110561;28;20444;-67
2021/05/03 13:47:25;;;;;;;5.77;5.27;;;16.00;41.90;;;;;;5110487;28;20142;-67
2021/05/03 13:49:50;;;;;;;5.37;4.87;;;16.30;41.60;;;;;;5119239;28;20162;-67
2021/05/03 13:52:16;;;;;;;6.43;5.70;;;16.50;41.40;;;;;;5131087;28;20150;-67
2021/05/03 13:54:41;;;;;;;6.50;5.90;;;16.70;41.50;;;;;;5130926;28;20157;-67
2021/05/03 13:57:08;;;;;;;5.90;5.40;;;16.80;41.20;;;;;;5130489;28;20201;-67
2021/05/03 13:59:34;;;;;;;6.87;6.17;;;16.90;41.30;;;;;;5130681;28;20558;-67
2021/05/03 14:02:03;;;;;;;8.70;6.03;;;16.70;40.70;;;;;;5131016;27;20388;-67
2021/05/03 14:04:29;;;;;;;6.53;5.40;;;16.50;40.80;;;;;;5130784;27;20417;-67
2021/05/03 14:06:56;;;;;;;12.70;5.90;;;16.00;41.60;;;;;;5130581;27;20439;-67
2021/05/03 14:09:22;;;;;;;7.40;6.80;;;15.70;41.80;;;;;;5130709;28;20152;-67
2021/05/03 14:11:47;;;;;;;7.13;6.43;;;15.60;42.20;;;;;;5131170;28;20387;-67
2021/05/03 14:14:13;;;;;;;5.80;5.20;;;15.40;42.60;;;;;;5129766;28;20179;-67
2021/05/03 14:16:39;;;;;;;8.70;5.70;;;15.40;42.70;;;;;;5130496;27;20559;-67
2021/05/03 14:19:10;;;;;;;4.83;4.30;;;15.50;42.30;;;;;;5130657;28;20168;-67
2021/05/03 14:21:36;;;;;;;4.73;4.00;;;15.70;41.40;;;;;;5130305;27;20418;-67
2021/05/03 14:24:02;;;;;;;4.27;3.90;;;15.90;40.50;;;;;;5130594;28;20427;-67
2021/05/03 14:26:29;;;;;;;5.20;4.00;;;16.00;39.50;;;;;;5130529;28;20253;-67
2021/05/03 14:29:02;;;;;;;4.63;4.20;;;16.20;39.50;;;;;;5130273;27;20402;-67
2021/05/03 14:31:34;;;;;;;4.67;4.27;;;16.20;39.50;;;;;;5129466;28;20421;-67
2021/05/03 14:34:12;;;;;;;4.10;3.80;;;16.20;39.60;;;;;;5130284;28;20419;-67
2021/05/03 14:36:37;;;;;;;4.70;4.30;;;16.20;39.50;;;;;;5126878;28;20450;-67
2021/05/03 14:39:04;;;;;;;4.23;3.90;;;16.30;39.70;;;;;;5116812;28;20792;-67
2021/05/03 14:41:29;;;;;;;5.60;5.00;;;16.10;39.60;;;;;;5116662;28;20166;-67
2021/05/03 14:43:55;;;;;;;5.20;3.57;;;16.00;40.30;;;;;;5116217;28;20402;-67
2021/05/03 14:46:39;;;;;;;5.20;4.77;;;15.90;42.00;;;;;;5116264;28;20645;-67
2021/05/03 14:52:08;;;;;;;5.27;4.87;;;15.20;43.20;;;;;;5094877;28;20489;-67
2021/05/03 14:54:39;;;;;;;5.83;5.07;;;15.20;43.60;;;;;;5096388;28;20870;-67
2021/05/03 14:57:07;;;;;;;5.70;5.03;;;15.30;43.70;;;;;;5095792;28;20403;-67
2021/05/03 14:59:34;;;;;;;6.20;4.57;;;15.40;43.50;;;;;;5095576;28;20442;-67
2021/05/03 15:02:00;;;;;;;6.30;3.97;;;15.50;43.40;;;;;;5095624;28;20457;-67
2021/05/03 15:04:26;;;;;;;6.13;4.43;;;15.50;43.00;;;;;;5095970;28;20414;-67